createdAt,value
2023-04-15T00:01:34.054Z,1.83
2023-04-15T00:06:39.689Z,2.08
2023-04-15T00:11:44.254Z,2.10
2023-04-15T00:16:47.490Z,2.20
2023-04-15T00:21:50.766Z,2.33
2023-04-15T00:26:55.506Z,2.20
2023-04-15T00:31:59.190Z,2.38
2023-04-15T00:37:02.553Z,2.35
2023-04-15T00:42:07.370Z,2.05
2023-04-15T00:47:11.316Z,1.80
2023-04-15T00:52:14.503Z,2.10
2023-04-15T00:57:19.186Z,1.92
2023-04-15T01:02:23.225Z,2.17
2023-04-15T01:07:26.550Z,2.30
2023-04-15T01:12:34.422Z,2.00
2023-04-15T01:17:38.329Z,1.75
2023-04-15T01:22:42.186Z,2.15
2023-04-15T01:27:47.144Z,2.00
2023-04-15T01:32:50.568Z,2.22
2023-04-15T01:38:13.751Z,1.77
2023-04-15T01:43:18.240Z,1.88
2023-04-15T01:48:21.656Z,1.98
2023-04-15T01:53:24.907Z,2.17
2023-04-15T01:58:29.610Z,1.60
2023-04-15T02:03:33.118Z,2.00
2023-04-15T02:08:36.328Z,1.85
2023-04-15T02:13:40.922Z,1.80
2023-04-15T02:18:44.042Z,1.33
2023-04-15T02:23:48.541Z,2.00
2023-04-15T02:28:53.225Z,1.95
2023-04-15T02:33:56.295Z,2.00
2023-04-15T02:39:00.124Z,1.90
2023-04-15T02:44:04.971Z,3.85
2023-04-15T02:49:08.730Z,1.73
2023-04-15T02:54:11.989Z,2.22
2023-04-15T02:59:16.616Z,1.75
2023-04-15T03:04:20.013Z,1.95
2023-04-15T03:09:23.356Z,2.00
2023-04-15T03:14:27.884Z,2.10
2023-04-15T03:19:31.954Z,1.90
2023-04-15T03:24:35.289Z,2.42
2023-04-15T03:29:39.970Z,1.65
2023-04-15T03:34:43.511Z,2.00
2023-04-15T03:39:46.940Z,1.63
2023-04-15T03:44:51.547Z,1.90
2023-04-15T03:49:54.787Z,2.50
2023-04-15T03:54:58.260Z,2.15
2023-04-15T04:00:02.947Z,2.10
2023-04-15T04:05:06.668Z,2.22
2023-04-15T04:10:10.580Z,2.28
2023-04-15T04:15:15.454Z,2.60
2023-04-15T04:20:18.785Z,2.45
2023-04-15T04:25:22.124Z,1.92
2023-04-15T04:30:26.779Z,2.10
2023-04-15T04:35:30.177Z,2.17
2023-04-15T04:40:33.487Z,2.42
2023-04-15T04:45:38.140Z,2.40
2023-04-15T04:50:41.489Z,2.50
2023-04-15T04:55:44.852Z,2.45
2023-04-15T05:00:49.568Z,2.60
2023-04-15T05:05:53.027Z,3.00
2023-04-15T05:10:56.452Z,2.40
2023-04-15T05:16:01.215Z,2.53
2023-04-15T05:21:04.476Z,3.05
2023-04-15T05:26:08.025Z,2.22
2023-04-15T05:31:12.735Z,2.50
2023-04-15T05:36:15.912Z,2.38
2023-04-15T05:41:19.811Z,2.70
2023-04-15T05:46:24.839Z,2.45
2023-04-15T05:51:28.050Z,2.90
2023-04-15T05:56:31.972Z,4.03
2023-04-15T06:01:36.865Z,3.75
2023-04-15T06:06:40.721Z,2.72
2023-04-15T06:11:44.038Z,2.33
2023-04-15T06:16:48.738Z,2.85
2023-04-15T06:21:52.099Z,2.47
2023-04-15T06:26:55.405Z,2.70
2023-04-15T06:32:00.382Z,3.20
2023-04-15T06:37:05.749Z,2.50
2023-04-15T06:42:10.100Z,3.00
2023-04-15T06:47:15.523Z,2.85
2023-04-15T06:52:19.151Z,2.80
2023-04-15T06:57:22.313Z,2.70
2023-04-15T07:02:27.523Z,2.72
2023-04-15T07:07:30.880Z,2.63
2023-04-15T07:12:34.160Z,2.88
2023-04-15T07:17:38.843Z,2.42
2023-04-15T07:22:42.518Z,2.33
2023-04-15T07:27:45.876Z,2.30
2023-04-15T07:32:50.948Z,2.15
2023-04-15T07:37:54.288Z,2.78
2023-04-15T07:42:58.544Z,2.60
2023-04-15T07:48:03.501Z,2.20
2023-04-15T07:53:07.414Z,1.98
2023-04-15T07:58:10.682Z,2.33
2023-04-15T08:03:15.824Z,2.50
2023-04-15T08:08:19.225Z,6.78
2023-04-15T08:13:22.465Z,2.00
2023-04-15T08:18:27.091Z,10.23
2023-04-15T08:23:30.322Z,2.70
2023-04-15T08:28:33.677Z,2.20
2023-04-15T08:33:38.306Z,2.13
2023-04-15T08:38:41.560Z,2.78
2023-04-15T08:43:50.721Z,2.05
2023-04-15T08:48:59.139Z,2.10
2023-04-15T08:54:03.391Z,2.20
2023-04-15T08:59:07.207Z,2.60
2023-04-15T09:04:12.961Z,2.30
2023-04-15T09:09:16.498Z,2.20
2023-04-15T09:14:19.768Z,2.72
2023-04-15T09:19:25.209Z,2.13
2023-04-15T09:24:38.919Z,2.30
2023-04-15T09:29:43.190Z,2.55
2023-04-15T09:34:48.361Z,2.10
2023-04-15T09:39:53.865Z,2.17
2023-04-15T09:44:57.011Z,2.70
2023-04-15T09:50:02.513Z,1.90
2023-04-15T09:55:08.375Z,2.42
2023-04-15T10:00:14.167Z,2.95
2023-04-15T10:05:19.631Z,1.90
2023-04-15T10:10:23.253Z,2.75
2023-04-15T10:15:28.273Z,2.33
2023-04-15T10:20:33.149Z,2.50
2023-04-15T10:25:36.642Z,3.00
2023-04-15T10:30:40.588Z,3.28
2023-04-15T10:35:46.503Z,2.85
2023-04-15T10:40:51.791Z,2.80
2023-04-15T10:45:55.153Z,2.55
2023-04-15T10:51:02.282Z,3.30
2023-04-15T10:56:06.716Z,2.50
2023-04-15T11:01:10.114Z,2.80
2023-04-15T11:06:15.073Z,2.97
2023-04-15T11:11:18.402Z,2.80
2023-04-15T11:16:21.821Z,2.75
2023-04-15T11:21:28.317Z,2.70
2023-04-15T11:26:32.324Z,2.53
2023-04-15T11:31:35.978Z,2.30
2023-04-15T11:36:40.516Z,2.80
2023-04-15T11:41:44.343Z,2.40
2023-04-15T11:46:47.548Z,2.22
2023-04-15T11:51:52.274Z,2.42
2023-04-15T11:56:56.733Z,2.30
2023-04-15T12:02:00.504Z,3.15
2023-04-15T12:07:07.805Z,3.00
2023-04-15T12:12:12.508Z,2.80
2023-04-15T12:17:16.780Z,2.80
2023-04-15T12:22:22.368Z,2.70
2023-04-15T12:27:29.785Z,2.88
2023-04-15T12:32:37.266Z,2.40
2023-04-15T12:37:42.078Z,4.43
2023-04-15T12:42:45.387Z,3.03
2023-04-15T12:47:48.637Z,2.67
2023-04-15T12:52:53.399Z,2.80
2023-04-15T12:57:56.906Z,3.28
2023-04-15T13:03:00.599Z,2.85
2023-04-15T13:08:05.573Z,3.58
2023-04-15T13:13:08.745Z,3.33
2023-04-15T13:18:12.021Z,3.35
2023-04-15T13:23:16.714Z,2.85
2023-04-15T13:28:20.080Z,3.80
2023-04-15T13:33:23.405Z,10.45
2023-04-15T13:38:28.272Z,11.55
2023-04-15T13:43:33.832Z,4.28
2023-04-15T13:48:37.238Z,8.88
2023-04-15T13:53:41.795Z,3.10
2023-04-15T13:58:45.149Z,2.58
2023-04-15T14:03:48.645Z,6.63
2023-04-15T14:08:53.611Z,6.13
2023-04-15T14:13:56.777Z,6.55
2023-04-15T14:19:00.552Z,3.05
2023-04-15T14:24:05.606Z,2.90
2023-04-15T14:29:09.272Z,2.65
2023-04-15T14:34:12.713Z,3.70
2023-04-15T14:39:17.713Z,6.68
2023-04-15T14:44:21.124Z,4.25
2023-04-15T14:49:24.683Z,5.78
2023-04-15T14:54:29.531Z,5.10
2023-04-15T14:59:33.364Z,4.55
2023-04-15T15:04:40.830Z,10.60
2023-04-15T15:09:45.782Z,5.20
2023-04-15T15:14:49.131Z,4.50
2023-04-15T15:19:52.511Z,5.95
2023-04-15T15:24:59.391Z,4.10
2023-04-15T15:30:02.948Z,7.32
2023-04-15T15:35:07.711Z,3.60
2023-04-15T15:40:13.718Z,3.70
2023-04-15T15:45:17.514Z,4.38
2023-04-15T15:50:22.167Z,4.13
2023-04-15T15:55:27.380Z,3.53
2023-04-15T16:00:30.765Z,3.47
2023-04-15T16:05:34.275Z,3.67
2023-04-15T16:10:39.368Z,3.40
2023-04-15T16:15:43.829Z,3.30
2023-04-15T16:20:47.240Z,3.80
2023-04-15T16:25:52.185Z,4.35
2023-04-15T16:30:56.376Z,4.97
2023-04-15T16:35:59.725Z,4.22
2023-04-15T16:41:04.695Z,8.60
2023-04-15T16:46:08.058Z,9.63
2023-04-15T16:51:11.519Z,13.50
2023-04-15T16:56:16.897Z,9.77
2023-04-15T17:01:21.514Z,7.85
2023-04-15T17:06:24.924Z,11.05
2023-04-15T17:11:31.467Z,36.00
2023-04-15T17:16:34.751Z,40.75
2023-04-15T17:21:38.411Z,50.47
2023-04-15T17:26:44.230Z,48.85
2023-04-15T17:31:49.965Z,38.60
2023-04-15T17:42:37.757Z,35.13
2023-04-15T17:48:03.576Z,32.25
2023-04-15T17:53:27.125Z,30.70
2023-04-15T17:58:53.216Z,25.45
2023-04-15T18:04:16.674Z,24.58
2023-04-15T18:15:05.907Z,32.20
2023-04-15T18:20:29.282Z,27.52
2023-04-15T18:25:34.312Z,26.67
2023-04-15T18:30:39.062Z,26.75
2023-04-15T18:35:43.110Z,43.10
2023-04-15T18:40:46.510Z,51.20
2023-04-15T18:45:54.745Z,44.20
2023-04-15T18:50:58.619Z,59.08
2023-04-15T18:56:03.088Z,79.20
2023-04-15T19:01:10.064Z,74.60
2023-04-15T19:06:17.259Z,212.85
2023-04-15T19:11:21.875Z,128.13
2023-04-15T19:16:26.648Z,83.20
2023-04-15T19:21:33.309Z,72.38
2023-04-15T19:26:38.071Z,63.25
2023-04-15T19:31:43.114Z,70.68
2023-04-15T19:36:46.670Z,82.82
2023-04-15T19:41:50.189Z,55.38
2023-04-15T19:46:55.644Z,42.45
2023-04-15T19:51:59.228Z,30.65
2023-04-15T19:57:02.724Z,23.30
2023-04-15T20:02:08.477Z,15.70
2023-04-15T20:07:11.873Z,14.32
2023-04-15T20:12:50.362Z,10.52
2023-04-15T20:17:39.839Z,10.77
2023-04-15T20:22:43.445Z,9.65
2023-04-15T20:27:46.889Z,7.63
2023-04-15T20:32:51.797Z,6.32
2023-04-15T20:37:55.623Z,20.85
2023-04-15T20:42:58.823Z,15.55
2023-04-15T20:48:03.697Z,7.53
2023-04-15T20:53:07.185Z,4.68
2023-04-15T20:58:10.548Z,5.38
2023-04-15T21:03:15.663Z,6.13
2023-04-15T21:08:19.112Z,5.38
2023-04-15T21:13:22.353Z,5.80
2023-04-15T21:18:27.078Z,6.80
2023-04-15T21:23:31.426Z,6.43
2023-04-15T21:28:34.902Z,6.53
2023-04-15T21:33:39.633Z,6.45
2023-04-15T21:38:43.072Z,5.53
2023-04-15T21:43:46.373Z,8.00
2023-04-15T21:48:51.104Z,8.88
2023-04-15T21:53:54.263Z,8.02
2023-04-15T21:58:58.784Z,8.82
2023-04-15T22:04:03.658Z,6.93
2023-04-15T22:09:07.046Z,6.80
2023-04-15T22:14:10.624Z,7.05
2023-04-15T22:19:15.150Z,6.15
2023-04-15T22:24:39.275Z,6.45
2023-04-15T22:29:42.010Z,7.07
2023-04-15T22:34:46.782Z,7.78
2023-04-15T22:39:50.183Z,6.68
2023-04-15T22:44:53.743Z,5.70
2023-04-15T22:49:58.499Z,7.20
2023-04-15T22:55:02.069Z,7.45
2023-04-15T23:00:08.857Z,7.85
2023-04-15T23:05:13.661Z,7.72
2023-04-15T23:10:17.288Z,5.78
2023-04-15T23:15:20.624Z,6.07
2023-04-15T23:20:25.619Z,6.00
2023-04-15T23:25:29.125Z,5.82
2023-04-15T23:30:32.717Z,6.57
2023-04-15T23:35:37.963Z,5.32
2023-04-15T23:40:41.192Z,5.28
2023-04-15T23:45:44.461Z,5.40
2023-04-15T23:50:49.239Z,4.97
2023-04-15T23:55:52.646Z,5.90
